sensor_id;sensor_type;location;lat;lon;timestamp;P1;durP1;ratioP1;P2;durP2;ratioP2
75446;SDS011;64024;55.820;37.574;2022-12-07T00:01:09;3.47;;;3.17;;
75446;SDS011;64024;55.820;37.574;2022-12-07T00:03:36;1.83;;;1.27;;
75446;SDS011;64024;55.820;37.574;2022-12-07T00:06:03;4.45;;;3.95;;
75446;SDS011;64024;55.820;37.574;2022-12-07T00:08:31;3.30;;;2.40;;
75446;SDS011;64024;55.820;37.574;2022-12-07T00:11:01;4.28;;;2.17;;
75446;SDS011;64024;55.820;37.574;2022-12-07T00:13:28;2.15;;;1.30;;
75446;SDS011;64024;55.820;37.574;2022-12-07T00:15:53;2.28;;;1.10;;
75446;SDS011;64024;55.820;37.574;2022-12-07T00:18:19;1.98;;;1.13;;
75446;SDS011;64024;55.820;37.574;2022-12-07T00:20:44;2.78;;;1.60;;
75446;SDS011;64024;55.820;37.574;2022-12-07T00:23:10;2.17;;;1.45;;
75446;SDS011;64024;55.820;37.574;2022-12-07T00:25:35;2.35;;;1.42;;
75446;SDS011;64024;55.820;37.574;2022-12-07T00:28:01;2.08;;;1.30;;
75446;SDS011;64024;55.820;37.574;2022-12-07T00:30:26;3.05;;;1.30;;
75446;SDS011;64024;55.820;37.574;2022-12-07T00:32:52;2.60;;;1.25;;
75446;SDS011;64024;55.820;37.574;2022-12-07T00:35:17;2.47;;;1.23;;
75446;SDS011;64024;55.820;37.574;2022-12-07T00:37:43;1.95;;;1.05;;
75446;SDS011;64024;55.820;37.574;2022-12-07T00:40:08;1.58;;;1.05;;
75446;SDS011;64024;55.820;37.574;2022-12-07T00:42:34;2.30;;;1.23;;
75446;SDS011;64024;55.820;37.574;2022-12-07T00:45:00;2.47;;;1.42;;
75446;SDS011;64024;55.820;37.574;2022-12-07T00:47:25;2.05;;;0.90;;
75446;SDS011;64024;55.820;37.574;2022-12-07T00:49:51;2.63;;;1.67;;
75446;SDS011;64024;55.820;37.574;2022-12-07T00:52:16;3.90;;;1.65;;
75446;SDS011;64024;55.820;37.574;2022-12-07T00:54:41;3.50;;;1.83;;
75446;SDS011;64024;55.820;37.574;2022-12-07T00:57:07;2.58;;;1.00;;
75446;SDS011;64024;55.820;37.574;2022-12-07T00:59:32;1.65;;;1.10;;
75446;SDS011;64024;55.820;37.574;2022-12-07T01:01:58;5.00;;;1.70;;
75446;SDS011;64024;55.820;37.574;2022-12-07T01:04:23;4.13;;;1.30;;
75446;SDS011;64024;55.820;37.574;2022-12-07T01:06:49;1.17;;;0.68;;
75446;SDS011;64024;55.820;37.574;2022-12-07T01:09:14;2.78;;;1.38;;
75446;SDS011;64024;55.820;37.574;2022-12-07T01:11:40;2.67;;;1.20;;
75446;SDS011;64024;55.820;37.574;2022-12-07T01:14:06;1.70;;;1.17;;
75446;SDS011;64024;55.820;37.574;2022-12-07T01:16:32;2.42;;;1.40;;
75446;SDS011;64024;55.820;37.574;2022-12-07T01:18:58;1.90;;;1.10;;
75446;SDS011;64024;55.820;37.574;2022-12-07T01:21:27;1.55;;;1.00;;
75446;SDS011;64024;55.820;37.574;2022-12-07T01:23:54;4.10;;;1.25;;
75446;SDS011;64024;55.820;37.574;2022-12-07T01:26:22;2.85;;;1.30;;
75446;SDS011;64024;55.820;37.574;2022-12-07T01:28:49;1.38;;;0.90;;
75446;SDS011;64024;55.820;37.574;2022-12-07T01:31:16;2.33;;;1.10;;
75446;SDS011;64024;55.820;37.574;2022-12-07T01:33:44;4.22;;;1.70;;
75446;SDS011;64024;55.820;37.574;2022-12-07T01:36:15;2.83;;;1.27;;
75446;SDS011;64024;55.820;37.574;2022-12-07T01:38:43;1.85;;;1.05;;
75446;SDS011;64024;55.820;37.574;2022-12-07T01:41:09;2.55;;;1.30;;
75446;SDS011;64024;55.820;37.574;2022-12-07T01:43:35;3.38;;;1.15;;
75446;SDS011;64024;55.820;37.574;2022-12-07T01:46:02;1.65;;;0.95;;
75446;SDS011;64024;55.820;37.574;2022-12-07T01:48:32;2.83;;;1.40;;
75446;SDS011;64024;55.820;37.574;2022-12-07T01:51:06;1.88;;;1.02;;
75446;SDS011;64024;55.820;37.574;2022-12-07T01:53:36;2.17;;;1.40;;
75446;SDS011;64024;55.820;37.574;2022-12-07T01:56:05;3.22;;;1.00;;
75446;SDS011;64024;55.820;37.574;2022-12-07T01:58:34;2.83;;;1.65;;
75446;SDS011;64024;55.820;37.574;2022-12-07T02:01:00;3.58;;;1.20;;
75446;SDS011;64024;55.820;37.574;2022-12-07T02:03:31;3.58;;;1.77;;
75446;SDS011;64024;55.820;37.574;2022-12-07T02:06:01;2.22;;;1.20;;
75446;SDS011;64024;55.820;37.574;2022-12-07T02:08:26;1.70;;;1.10;;
75446;SDS011;64024;55.820;37.574;2022-12-07T02:10:52;2.30;;;1.10;;
75446;SDS011;64024;55.820;37.574;2022-12-07T02:13:24;2.95;;;1.60;;
75446;SDS011;64024;55.820;37.574;2022-12-07T02:30:07;3.00;;;1.75;;
75446;SDS011;64024;55.820;37.574;2022-12-07T02:32:53;2.17;;;1.50;;
75446;SDS011;64024;55.820;37.574;2022-12-07T02:38:23;1.92;;;0.98;;
75446;SDS011;64024;55.820;37.574;2022-12-07T02:40:55;2.10;;;1.38;;
75446;SDS011;64024;55.820;37.574;2022-12-07T02:43:32;2.33;;;1.30;;
75446;SDS011;64024;55.820;37.574;2022-12-07T02:46:08;2.75;;;1.20;;
75446;SDS011;64024;55.820;37.574;2022-12-07T02:48:39;2.97;;;1.38;;
75446;SDS011;64024;55.820;37.574;2022-12-07T02:51:06;1.98;;;1.23;;
75446;SDS011;64024;55.820;37.574;2022-12-07T02:53:36;3.10;;;1.30;;
75446;SDS011;64024;55.820;37.574;2022-12-07T03:04:02;2.10;;;1.20;;
75446;SDS011;64024;55.820;37.574;2022-12-07T03:06:35;2.03;;;1.00;;
75446;SDS011;64024;55.820;37.574;2022-12-07T03:09:13;2.30;;;1.48;;
75446;SDS011;64024;55.820;37.574;2022-12-07T03:11:50;2.40;;;1.23;;
75446;SDS011;64024;55.820;37.574;2022-12-07T03:14:43;3.97;;;1.60;;
75446;SDS011;64024;55.820;37.574;2022-12-07T03:17:19;3.70;;;2.28;;
75446;SDS011;64024;55.820;37.574;2022-12-07T03:19:50;8.32;;;2.13;;
75446;SDS011;64024;55.820;37.574;2022-12-07T03:22:20;2.38;;;1.60;;
75446;SDS011;64024;55.820;37.574;2022-12-07T03:24:49;3.10;;;1.65;;
75446;SDS011;64024;55.820;37.574;2022-12-07T03:27:22;3.35;;;1.67;;
75446;SDS011;64024;55.820;37.574;2022-12-07T03:30:12;3.20;;;1.40;;
75446;SDS011;64024;55.820;37.574;2022-12-07T03:35:33;3.70;;;1.52;;
75446;SDS011;64024;55.820;37.574;2022-12-07T03:38:12;4.55;;;2.55;;
75446;SDS011;64024;55.820;37.574;2022-12-07T03:41:16;5.22;;;1.45;;
75446;SDS011;64024;55.820;37.574;2022-12-07T03:43:37;2.88;;;1.30;;
75446;SDS011;64024;55.820;37.574;2022-12-07T03:51:45;2.40;;;1.20;;
75446;SDS011;64024;55.820;37.574;2022-12-07T03:54:24;2.55;;;1.35;;
75446;SDS011;64024;55.820;37.574;2022-12-07T03:56:55;2.03;;;1.23;;
75446;SDS011;64024;55.820;37.574;2022-12-07T03:59:22;3.80;;;1.33;;
75446;SDS011;64024;55.820;37.574;2022-12-07T04:01:55;2.08;;;1.00;;
75446;SDS011;64024;55.820;37.574;2022-12-07T04:04:22;2.60;;;1.33;;
75446;SDS011;64024;55.820;37.574;2022-12-07T04:06:49;2.28;;;1.30;;
75446;SDS011;64024;55.820;37.574;2022-12-07T04:09:15;2.28;;;1.50;;
75446;SDS011;64024;55.820;37.574;2022-12-07T04:11:41;2.53;;;1.40;;
75446;SDS011;64024;55.820;37.574;2022-12-07T04:14:07;2.33;;;1.30;;
75446;SDS011;64024;55.820;37.574;2022-12-07T04:16:48;4.07;;;1.40;;
75446;SDS011;64024;55.820;37.574;2022-12-07T04:19:15;2.60;;;1.17;;
75446;SDS011;64024;55.820;37.574;2022-12-07T04:21:41;3.03;;;1.30;;
75446;SDS011;64024;55.820;37.574;2022-12-07T04:24:07;2.15;;;1.30;;
75446;SDS011;64024;55.820;37.574;2022-12-07T04:26:33;3.20;;;1.30;;
75446;SDS011;64024;55.820;37.574;2022-12-07T04:28:58;2.38;;;1.40;;
75446;SDS011;64024;55.820;37.574;2022-12-07T04:31:24;2.53;;;1.02;;
75446;SDS011;64024;55.820;37.574;2022-12-07T04:33:49;2.33;;;1.35;;
75446;SDS011;64024;55.820;37.574;2022-12-07T04:36:15;2.92;;;1.30;;
75446;SDS011;64024;55.820;37.574;2022-12-07T04:38:41;1.92;;;1.23;;
75446;SDS011;64024;55.820;37.574;2022-12-07T04:41:06;2.75;;;1.13;;
75446;SDS011;64024;55.820;37.574;2022-12-07T04:43:33;2.70;;;1.00;;
75446;SDS011;64024;55.820;37.574;2022-12-07T04:45:59;2.10;;;1.45;;
75446;SDS011;64024;55.820;37.574;2022-12-07T04:48:25;2.13;;;1.10;;
75446;SDS011;64024;55.820;37.574;2022-12-07T04:50:51;2.33;;;1.00;;
75446;SDS011;64024;55.820;37.574;2022-12-07T04:53:16;2.22;;;1.40;;
75446;SDS011;64024;55.820;37.574;2022-12-07T04:55:43;2.42;;;1.10;;
75446;SDS011;64024;55.820;37.574;2022-12-07T04:58:09;1.70;;;1.17;;
75446;SDS011;64024;55.820;37.574;2022-12-07T05:00:34;3.33;;;1.35;;
75446;SDS011;64024;55.820;37.574;2022-12-07T05:03:00;2.88;;;1.33;;
75446;SDS011;64024;55.820;37.574;2022-12-07T05:05:26;2.35;;;1.30;;
75446;SDS011;64024;55.820;37.574;2022-12-07T05:07:51;2.45;;;1.33;;
75446;SDS011;64024;55.820;37.574;2022-12-07T05:10:17;2.42;;;1.30;;
75446;SDS011;64024;55.820;37.574;2022-12-07T05:12:42;2.35;;;1.23;;
75446;SDS011;64024;55.820;37.574;2022-12-07T05:15:08;1.85;;;1.10;;
75446;SDS011;64024;55.820;37.574;2022-12-07T05:17:34;2.78;;;1.20;;
75446;SDS011;64024;55.820;37.574;2022-12-07T05:19:59;3.63;;;1.17;;
75446;SDS011;64024;55.820;37.574;2022-12-07T05:22:25;1.67;;;1.02;;
75446;SDS011;64024;55.820;37.574;2022-12-07T05:24:53;1.63;;;1.15;;
75446;SDS011;64024;55.820;37.574;2022-12-07T05:27:19;1.98;;;0.90;;
75446;SDS011;64024;55.820;37.574;2022-12-07T05:29:45;2.38;;;1.10;;
75446;SDS011;64024;55.820;37.574;2022-12-07T05:32:10;1.02;;;0.65;;
75446;SDS011;64024;55.820;37.574;2022-12-07T05:34:36;1.70;;;0.95;;
75446;SDS011;64024;55.820;37.574;2022-12-07T05:37:02;2.50;;;1.55;;
75446;SDS011;64024;55.820;37.574;2022-12-07T05:39:27;3.10;;;1.42;;
75446;SDS011;64024;55.820;37.574;2022-12-07T05:41:53;2.10;;;1.10;;
75446;SDS011;64024;55.820;37.574;2022-12-07T05:44:40;3.92;;;1.92;;
75446;SDS011;64024;55.820;37.574;2022-12-07T05:47:07;2.35;;;1.20;;
75446;SDS011;64024;55.820;37.574;2022-12-07T05:49:33;1.52;;;1.00;;
75446;SDS011;64024;55.820;37.574;2022-12-07T05:51:58;2.03;;;1.08;;
75446;SDS011;64024;55.820;37.574;2022-12-07T05:54:24;1.92;;;1.20;;
75446;SDS011;64024;55.820;37.574;2022-12-07T05:56:50;2.35;;;0.93;;
75446;SDS011;64024;55.820;37.574;2022-12-07T05:59:16;1.65;;;0.93;;
75446;SDS011;64024;55.820;37.574;2022-12-07T06:01:48;1.10;;;0.60;;
75446;SDS011;64024;55.820;37.574;2022-12-07T06:04:15;1.80;;;1.10;;
75446;SDS011;64024;55.820;37.574;2022-12-07T06:06:41;1.90;;;0.98;;
75446;SDS011;64024;55.820;37.574;2022-12-07T06:09:06;2.45;;;1.27;;
75446;SDS011;64024;55.820;37.574;2022-12-07T06:11:32;1.40;;;0.80;;
75446;SDS011;64024;55.820;37.574;2022-12-07T06:14:16;1.80;;;0.95;;
75446;SDS011;64024;55.820;37.574;2022-12-07T06:16:42;1.63;;;0.95;;
75446;SDS011;64024;55.820;37.574;2022-12-07T06:19:07;1.92;;;1.23;;
75446;SDS011;64024;55.820;37.574;2022-12-07T06:21:33;2.42;;;1.10;;
75446;SDS011;64024;55.820;37.574;2022-12-07T06:23:58;2.22;;;1.38;;
75446;SDS011;64024;55.820;37.574;2022-12-07T06:26:24;1.75;;;0.73;;
75446;SDS011;64024;55.820;37.574;2022-12-07T06:28:50;3.58;;;1.05;;
75446;SDS011;64024;55.820;37.574;2022-12-07T06:31:15;1.88;;;1.25;;
75446;SDS011;64024;55.820;37.574;2022-12-07T06:33:41;1.67;;;0.98;;
75446;SDS011;64024;55.820;37.574;2022-12-07T06:36:08;2.92;;;1.50;;
75446;SDS011;64024;55.820;37.574;2022-12-07T06:38:34;1.90;;;1.10;;
75446;SDS011;64024;55.820;37.574;2022-12-07T06:41:00;1.75;;;1.13;;
75446;SDS011;64024;55.820;37.574;2022-12-07T06:43:25;2.15;;;1.20;;
75446;SDS011;64024;55.820;37.574;2022-12-07T06:45:51;2.95;;;1.70;;
75446;SDS011;64024;55.820;37.574;2022-12-07T06:48:16;2.78;;;1.80;;
75446;SDS011;64024;55.820;37.574;2022-12-07T06:50:44;2.38;;;0.93;;
75446;SDS011;64024;55.820;37.574;2022-12-07T06:55:35;2.88;;;1.27;;
75446;SDS011;64024;55.820;37.574;2022-12-07T06:58:01;2.00;;;1.33;;
75446;SDS011;64024;55.820;37.574;2022-12-07T07:00:27;2.13;;;1.23;;
75446;SDS011;64024;55.820;37.574;2022-12-07T07:02:53;2.50;;;1.67;;
75446;SDS011;64024;55.820;37.574;2022-12-07T07:05:19;3.65;;;1.50;;
75446;SDS011;64024;55.820;37.574;2022-12-07T07:07:47;2.92;;;1.63;;
75446;SDS011;64024;55.820;37.574;2022-12-07T07:10:16;1.58;;;0.90;;
75446;SDS011;64024;55.820;37.574;2022-12-07T07:12:41;2.75;;;1.55;;
75446;SDS011;64024;55.820;37.574;2022-12-07T07:15:07;2.13;;;1.63;;
75446;SDS011;64024;55.820;37.574;2022-12-07T07:17:32;2.05;;;1.30;;
75446;SDS011;64024;55.820;37.574;2022-12-07T07:19:58;1.98;;;1.08;;
75446;SDS011;64024;55.820;37.574;2022-12-07T07:22:23;2.72;;;1.38;;
75446;SDS011;64024;55.820;37.574;2022-12-07T07:24:49;2.35;;;1.30;;
75446;SDS011;64024;55.820;37.574;2022-12-07T07:27:15;2.78;;;1.30;;
75446;SDS011;64024;55.820;37.574;2022-12-07T07:29:40;5.63;;;1.80;;
75446;SDS011;64024;55.820;37.574;2022-12-07T07:32:05;2.95;;;1.60;;
75446;SDS011;64024;55.820;37.574;2022-12-07T07:34:32;2.50;;;1.23;;
75446;SDS011;64024;55.820;37.574;2022-12-07T07:36:58;4.22;;;2.97;;
75446;SDS011;64024;55.820;37.574;2022-12-07T07:39:24;2.85;;;1.92;;
75446;SDS011;64024;55.820;37.574;2022-12-07T07:41:49;2.72;;;1.77;;
75446;SDS011;64024;55.820;37.574;2022-12-07T07:44:15;5.30;;;1.77;;
75446;SDS011;64024;55.820;37.574;2022-12-07T07:46:40;3.45;;;2.85;;
75446;SDS011;64024;55.820;37.574;2022-12-07T07:49:06;3.33;;;2.20;;
75446;SDS011;64024;55.820;37.574;2022-12-07T07:51:31;4.57;;;2.38;;
75446;SDS011;64024;55.820;37.574;2022-12-07T07:53:57;3.83;;;3.30;;
75446;SDS011;64024;55.820;37.574;2022-12-07T07:56:22;4.10;;;2.55;;
75446;SDS011;64024;55.820;37.574;2022-12-07T07:58:51;3.72;;;3.28;;
75446;SDS011;64024;55.820;37.574;2022-12-07T08:01:17;3.90;;;2.80;;
75446;SDS011;64024;55.820;37.574;2022-12-07T08:03:44;17.15;;;13.57;;
75446;SDS011;64024;55.820;37.574;2022-12-07T08:06:15;4.45;;;3.17;;
75446;SDS011;64024;55.820;37.574;2022-12-07T08:08:41;3.28;;;2.38;;
75446;SDS011;64024;55.820;37.574;2022-12-07T08:11:07;12.38;;;11.30;;
75446;SDS011;64024;55.820;37.574;2022-12-07T08:13:34;3.75;;;3.08;;
75446;SDS011;64024;55.820;37.574;2022-12-07T08:16:09;6.82;;;2.47;;
75446;SDS011;64024;55.820;37.574;2022-12-07T08:18:38;3.63;;;2.45;;
75446;SDS011;64024;55.820;37.574;2022-12-07T08:21:05;4.97;;;4.38;;
75446;SDS011;64024;55.820;37.574;2022-12-07T08:23:32;4.20;;;3.80;;
75446;SDS011;64024;55.820;37.574;2022-12-07T08:26:02;4.50;;;3.25;;
75446;SDS011;64024;55.820;37.574;2022-12-07T08:28:31;3.67;;;3.28;;
75446;SDS011;64024;55.820;37.574;2022-12-07T08:31:01;5.43;;;3.42;;
75446;SDS011;64024;55.820;37.574;2022-12-07T08:33:28;4.28;;;2.97;;
75446;SDS011;64024;55.820;37.574;2022-12-07T08:35:53;3.05;;;2.40;;
75446;SDS011;64024;55.820;37.574;2022-12-07T08:38:19;5.63;;;4.35;;
75446;SDS011;64024;55.820;37.574;2022-12-07T08:40:45;3.38;;;2.70;;
75446;SDS011;64024;55.820;37.574;2022-12-07T08:43:18;4.53;;;2.85;;
75446;SDS011;64024;55.820;37.574;2022-12-07T08:45:43;3.22;;;2.92;;
75446;SDS011;64024;55.820;37.574;2022-12-07T08:48:09;5.85;;;2.67;;
75446;SDS011;64024;55.820;37.574;2022-12-07T08:50:38;4.03;;;2.60;;
75446;SDS011;64024;55.820;37.574;2022-12-07T08:53:04;3.60;;;2.10;;
75446;SDS011;64024;55.820;37.574;2022-12-07T08:55:31;3.50;;;2.42;;
75446;SDS011;64024;55.820;37.574;2022-12-07T08:57:59;3.25;;;2.08;;
75446;SDS011;64024;55.820;37.574;2022-12-07T09:00:25;3.50;;;2.10;;
75446;SDS011;64024;55.820;37.574;2022-12-07T09:02:52;3.33;;;2.25;;
75446;SDS011;64024;55.820;37.574;2022-12-07T09:05:18;4.07;;;2.95;;
75446;SDS011;64024;55.820;37.574;2022-12-07T09:07:45;3.63;;;2.00;;
75446;SDS011;64024;55.820;37.574;2022-12-07T09:10:14;8.55;;;3.65;;
75446;SDS011;64024;55.820;37.574;2022-12-07T09:12:39;3.60;;;2.90;;
75446;SDS011;64024;55.820;37.574;2022-12-07T09:15:05;4.30;;;2.53;;
75446;SDS011;64024;55.820;37.574;2022-12-07T09:17:34;3.60;;;2.45;;
75446;SDS011;64024;55.820;37.574;2022-12-07T09:20:01;3.25;;;2.58;;
75446;SDS011;64024;55.820;37.574;2022-12-07T09:22:28;3.45;;;2.22;;
75446;SDS011;64024;55.820;37.574;2022-12-07T09:24:55;4.95;;;2.92;;
75446;SDS011;64024;55.820;37.574;2022-12-07T09:27:22;5.13;;;3.13;;
75446;SDS011;64024;55.820;37.574;2022-12-07T09:29:47;3.40;;;2.60;;
75446;SDS011;64024;55.820;37.574;2022-12-07T09:32:13;3.20;;;2.47;;
75446;SDS011;64024;55.820;37.574;2022-12-07T09:34:38;5.00;;;2.78;;
75446;SDS011;64024;55.820;37.574;2022-12-07T09:37:04;3.28;;;2.15;;
75446;SDS011;64024;55.820;37.574;2022-12-07T09:39:30;3.40;;;1.85;;
75446;SDS011;64024;55.820;37.574;2022-12-07T09:41:56;3.28;;;2.00;;
75446;SDS011;64024;55.820;37.574;2022-12-07T09:44:24;4.03;;;2.45;;
75446;SDS011;64024;55.820;37.574;2022-12-07T09:46:54;3.10;;;1.92;;
75446;SDS011;64024;55.820;37.574;2022-12-07T09:49:24;4.10;;;2.42;;
75446;SDS011;64024;55.820;37.574;2022-12-07T09:52:03;3.83;;;2.05;;
75446;SDS011;64024;55.820;37.574;2022-12-07T09:54:33;3.80;;;2.10;;
75446;SDS011;64024;55.820;37.574;2022-12-07T09:57:03;5.75;;;2.25;;
75446;SDS011;64024;55.820;37.574;2022-12-07T09:59:28;2.75;;;1.88;;
75446;SDS011;64024;55.820;37.574;2022-12-07T10:01:56;3.88;;;2.65;;
75446;SDS011;64024;55.820;37.574;2022-12-07T10:04:58;5.40;;;2.60;;
75446;SDS011;64024;55.820;37.574;2022-12-07T10:07:24;3.10;;;2.17;;
75446;SDS011;64024;55.820;37.574;2022-12-07T10:09:50;3.70;;;1.90;;
75446;SDS011;64024;55.820;37.574;2022-12-07T10:12:16;2.72;;;2.00;;
75446;SDS011;64024;55.820;37.574;2022-12-07T10:14:55;3.13;;;1.95;;
75446;SDS011;64024;55.820;37.574;2022-12-07T10:22:37;3.88;;;2.00;;
75446;SDS011;64024;55.820;37.574;2022-12-07T10:25:16;8.25;;;2.28;;
75446;SDS011;64024;55.820;37.574;2022-12-07T10:27:56;2.72;;;2.05;;
75446;SDS011;64024;55.820;37.574;2022-12-07T10:30:25;3.88;;;2.78;;
75446;SDS011;64024;55.820;37.574;2022-12-07T10:32:51;4.15;;;2.65;;
75446;SDS011;64024;55.820;37.574;2022-12-07T10:35:22;3.47;;;2.70;;
75446;SDS011;64024;55.820;37.574;2022-12-07T10:37:50;3.83;;;2.67;;
75446;SDS011;64024;55.820;37.574;2022-12-07T10:40:24;3.42;;;2.28;;
75446;SDS011;64024;55.820;37.574;2022-12-07T10:45:31;3.25;;;2.45;;
75446;SDS011;64024;55.820;37.574;2022-12-07T11:04:38;3.92;;;2.53;;
75446;SDS011;64024;55.820;37.574;2022-12-07T11:18:22;4.00;;;3.60;;
75446;SDS011;64024;55.820;37.574;2022-12-07T11:21:07;6.07;;;5.53;;
75446;SDS011;64024;55.820;37.574;2022-12-07T11:26:34;4.82;;;2.40;;
75446;SDS011;64024;55.820;37.574;2022-12-07T11:29:09;3.90;;;2.38;;
75446;SDS011;64024;55.820;37.574;2022-12-07T11:32:02;3.00;;;1.92;;
75446;SDS011;64024;55.820;37.574;2022-12-07T11:37:17;3.20;;;2.13;;
75446;SDS011;64024;55.820;37.574;2022-12-07T11:42:25;3.90;;;2.75;;
75446;SDS011;64024;55.820;37.574;2022-12-07T11:45:00;4.15;;;2.47;;
75446;SDS011;64024;55.820;37.574;2022-12-07T11:47:42;6.40;;;2.20;;
75446;SDS011;64024;55.820;37.574;2022-12-07T11:55:24;2.95;;;2.20;;
75446;SDS011;64024;55.820;37.574;2022-12-07T11:58:00;4.15;;;2.75;;
75446;SDS011;64024;55.820;37.574;2022-12-07T12:00:35;2.58;;;2.08;;
75446;SDS011;64024;55.820;37.574;2022-12-07T12:03:03;5.55;;;2.05;;
75446;SDS011;64024;55.820;37.574;2022-12-07T12:05:36;2.72;;;1.83;;
75446;SDS011;64024;55.820;37.574;2022-12-07T12:10:55;3.28;;;2.20;;
75446;SDS011;64024;55.820;37.574;2022-12-07T12:13:28;3.63;;;1.90;;
75446;SDS011;64024;55.820;37.574;2022-12-07T12:16:22;2.85;;;2.25;;
75446;SDS011;64024;55.820;37.574;2022-12-07T12:19:29;4.20;;;2.08;;
75446;SDS011;64024;55.820;37.574;2022-12-07T12:22:10;3.22;;;2.10;;
75446;SDS011;64024;55.820;37.574;2022-12-07T12:24:40;4.10;;;2.60;;
75446;SDS011;64024;55.820;37.574;2022-12-07T12:27:09;2.58;;;1.67;;
75446;SDS011;64024;55.820;37.574;2022-12-07T12:29:41;3.55;;;1.80;;
75446;SDS011;64024;55.820;37.574;2022-12-07T12:42:49;5.30;;;3.47;;
75446;SDS011;64024;55.820;37.574;2022-12-07T12:45:18;4.40;;;2.97;;
75446;SDS011;64024;55.820;37.574;2022-12-07T12:48:54;3.53;;;2.42;;
75446;SDS011;64024;55.820;37.574;2022-12-07T13:15:41;7.03;;;6.10;;
75446;SDS011;64024;55.820;37.574;2022-12-07T13:26:16;3.80;;;3.03;;
75446;SDS011;64024;55.820;37.574;2022-12-07T13:28:49;4.38;;;3.28;;
75446;SDS011;64024;55.820;37.574;2022-12-07T13:33:48;4.70;;;2.63;;
75446;SDS011;64024;55.820;37.574;2022-12-07T13:36:18;3.75;;;2.90;;
75446;SDS011;64024;55.820;37.574;2022-12-07T13:38:56;5.10;;;3.25;;
75446;SDS011;64024;55.820;37.574;2022-12-07T13:41:24;3.25;;;2.67;;
75446;SDS011;64024;55.820;37.574;2022-12-07T13:43:52;3.85;;;2.42;;
75446;SDS011;64024;55.820;37.574;2022-12-07T13:46:26;4.80;;;2.58;;
75446;SDS011;64024;55.820;37.574;2022-12-07T13:49:01;6.15;;;2.45;;
75446;SDS011;64024;55.820;37.574;2022-12-07T13:51:27;3.55;;;2.30;;
75446;SDS011;64024;55.820;37.574;2022-12-07T13:53:55;3.83;;;2.22;;
75446;SDS011;64024;55.820;37.574;2022-12-07T13:56:31;2.58;;;2.20;;
75446;SDS011;64024;55.820;37.574;2022-12-07T13:58:58;5.43;;;2.88;;
75446;SDS011;64024;55.820;37.574;2022-12-07T14:01:24;2.75;;;2.35;;
75446;SDS011;64024;55.820;37.574;2022-12-07T14:03:50;3.35;;;2.38;;
75446;SDS011;64024;55.820;37.574;2022-12-07T14:06:25;2.88;;;2.03;;
75446;SDS011;64024;55.820;37.574;2022-12-07T14:09:09;3.60;;;2.28;;
75446;SDS011;64024;55.820;37.574;2022-12-07T14:11:42;3.97;;;2.17;;
75446;SDS011;64024;55.820;37.574;2022-12-07T14:14:23;3.97;;;2.50;;
75446;SDS011;64024;55.820;37.574;2022-12-07T14:16:56;3.50;;;2.50;;
75446;SDS011;64024;55.820;37.574;2022-12-07T14:24:57;3.50;;;3.00;;
75446;SDS011;64024;55.820;37.574;2022-12-07T14:27:24;3.50;;;2.35;;
75446;SDS011;64024;55.820;37.574;2022-12-07T14:29:55;4.43;;;3.67;;
75446;SDS011;64024;55.820;37.574;2022-12-07T14:32:23;7.70;;;4.80;;
75446;SDS011;64024;55.820;37.574;2022-12-07T14:34:57;5.15;;;3.83;;
75446;SDS011;64024;55.820;37.574;2022-12-07T14:37:35;5.32;;;4.65;;
75446;SDS011;64024;55.820;37.574;2022-12-07T14:40:02;4.72;;;4.32;;
75446;SDS011;64024;55.820;37.574;2022-12-07T14:42:28;5.22;;;4.03;;
75446;SDS011;64024;55.820;37.574;2022-12-07T14:44:56;7.40;;;4.97;;
75446;SDS011;64024;55.820;37.574;2022-12-07T14:47:23;6.82;;;4.47;;
75446;SDS011;64024;55.820;37.574;2022-12-07T14:49:50;6.03;;;4.45;;
75446;SDS011;64024;55.820;37.574;2022-12-07T14:52:23;6.38;;;5.15;;
75446;SDS011;64024;55.820;37.574;2022-12-07T14:54:55;6.38;;;5.40;;
75446;SDS011;64024;55.820;37.574;2022-12-07T14:57:20;6.55;;;5.78;;
75446;SDS011;64024;55.820;37.574;2022-12-07T14:59:46;11.93;;;5.47;;
75446;SDS011;64024;55.820;37.574;2022-12-07T15:02:13;6.15;;;4.97;;
75446;SDS011;64024;55.820;37.574;2022-12-07T15:04:39;5.63;;;5.05;;
75446;SDS011;64024;55.820;37.574;2022-12-07T15:07:06;4.38;;;3.95;;
75446;SDS011;64024;55.820;37.574;2022-12-07T15:09:39;5.72;;;4.93;;
75446;SDS011;64024;55.820;37.574;2022-12-07T15:12:05;5.10;;;4.53;;
75446;SDS011;64024;55.820;37.574;2022-12-07T15:14:31;4.65;;;3.92;;
75446;SDS011;64024;55.820;37.574;2022-12-07T15:16:56;5.85;;;4.30;;
75446;SDS011;64024;55.820;37.574;2022-12-07T15:19:22;5.35;;;4.72;;
75446;SDS011;64024;55.820;37.574;2022-12-07T15:21:51;4.93;;;4.18;;
75446;SDS011;64024;55.820;37.574;2022-12-07T15:24:17;4.68;;;3.50;;
75446;SDS011;64024;55.820;37.574;2022-12-07T15:26:43;4.97;;;3.88;;
75446;SDS011;64024;55.820;37.574;2022-12-07T15:29:09;5.20;;;4.38;;
75446;SDS011;64024;55.820;37.574;2022-12-07T15:31:36;5.90;;;4.90;;
75446;SDS011;64024;55.820;37.574;2022-12-07T15:34:02;10.02;;;4.15;;
75446;SDS011;64024;55.820;37.574;2022-12-07T15:36:30;4.40;;;3.70;;
75446;SDS011;64024;55.820;37.574;2022-12-07T15:38:57;5.45;;;4.07;;
75446;SDS011;64024;55.820;37.574;2022-12-07T15:41:22;5.53;;;3.78;;
75446;SDS011;64024;55.820;37.574;2022-12-07T15:43:48;4.20;;;3.80;;
75446;SDS011;64024;55.820;37.574;2022-12-07T15:46:33;4.45;;;3.22;;
75446;SDS011;64024;55.820;37.574;2022-12-07T15:49:01;4.30;;;3.33;;
75446;SDS011;64024;55.820;37.574;2022-12-07T15:51:27;5.00;;;3.60;;
75446;SDS011;64024;55.820;37.574;2022-12-07T15:53:53;4.65;;;3.47;;
75446;SDS011;64024;55.820;37.574;2022-12-07T15:56:20;4.18;;;3.35;;
75446;SDS011;64024;55.820;37.574;2022-12-07T15:58:46;5.13;;;3.33;;
75446;SDS011;64024;55.820;37.574;2022-12-07T16:01:12;4.28;;;3.22;;
75446;SDS011;64024;55.820;37.574;2022-12-07T16:03:42;4.47;;;3.38;;
75446;SDS011;64024;55.820;37.574;2022-12-07T16:06:08;4.03;;;3.15;;
75446;SDS011;64024;55.820;37.574;2022-12-07T16:08:34;4.78;;;3.90;;
75446;SDS011;64024;55.820;37.574;2022-12-07T16:10:59;3.95;;;2.92;;
75446;SDS011;64024;55.820;37.574;2022-12-07T16:13:29;3.85;;;3.53;;
75446;SDS011;64024;55.820;37.574;2022-12-07T16:15:54;5.35;;;3.42;;
75446;SDS011;64024;55.820;37.574;2022-12-07T16:18:20;4.68;;;3.60;;
75446;SDS011;64024;55.820;37.574;2022-12-07T16:20:47;4.28;;;3.53;;
75446;SDS011;64024;55.820;37.574;2022-12-07T16:23:14;4.57;;;3.35;;
75446;SDS011;64024;55.820;37.574;2022-12-07T16:25:39;4.90;;;3.08;;
75446;SDS011;64024;55.820;37.574;2022-12-07T16:28:06;4.22;;;3.50;;
75446;SDS011;64024;55.820;37.574;2022-12-07T16:30:31;5.95;;;3.83;;
75446;SDS011;64024;55.820;37.574;2022-12-07T16:32:57;4.88;;;3.22;;
75446;SDS011;64024;55.820;37.574;2022-12-07T16:35:22;4.35;;;3.00;;
75446;SDS011;64024;55.820;37.574;2022-12-07T16:37:48;4.28;;;3.13;;
75446;SDS011;64024;55.820;37.574;2022-12-07T16:40:13;4.13;;;2.72;;
75446;SDS011;64024;55.820;37.574;2022-12-07T16:42:39;4.00;;;2.75;;
75446;SDS011;64024;55.820;37.574;2022-12-07T16:45:04;4.53;;;3.35;;
75446;SDS011;64024;55.820;37.574;2022-12-07T16:47:30;4.18;;;2.90;;
75446;SDS011;64024;55.820;37.574;2022-12-07T16:49:56;4.00;;;2.85;;
75446;SDS011;64024;55.820;37.574;2022-12-07T16:52:22;4.53;;;2.78;;
75446;SDS011;64024;55.820;37.574;2022-12-07T16:54:48;4.43;;;2.55;;
75446;SDS011;64024;55.820;37.574;2022-12-07T16:57:14;3.25;;;2.72;;
75446;SDS011;64024;55.820;37.574;2022-12-07T16:59:41;4.35;;;3.08;;
75446;SDS011;64024;55.820;37.574;2022-12-07T17:02:08;4.38;;;2.78;;